sensor_id;sensor_type;location;lat;lon;timestamp;P1;durP1;ratioP1;P2;durP2;ratioP2
10977;SDS011;5542;48.272;10.794;2023-12-07T00:02:07;5.22;;;4.60;;
10977;SDS011;5542;48.272;10.794;2023-12-07T00:04:34;4.90;;;4.40;;
10977;SDS011;5542;48.272;10.794;2023-12-07T00:07:00;5.22;;;4.50;;
10977;SDS011;5542;48.272;10.794;2023-12-07T00:09:28;5.07;;;4.50;;
10977;SDS011;5542;48.272;10.794;2023-12-07T00:11:55;6.15;;;5.25;;
10977;SDS011;5542;48.272;10.794;2023-12-07T00:14:21;6.10;;;4.83;;
10977;SDS011;5542;48.272;10.794;2023-12-07T00:16:48;5.78;;;4.90;;
10977;SDS011;5542;48.272;10.794;2023-12-07T00:19:15;5.43;;;4.93;;
10977;SDS011;5542;48.272;10.794;2023-12-07T00:21:41;6.10;;;5.50;;
10977;SDS011;5542;48.272;10.794;2023-12-07T00:24:08;6.10;;;4.85;;
10977;SDS011;5542;48.272;10.794;2023-12-07T00:26:36;6.03;;;4.70;;
10977;SDS011;5542;48.272;10.794;2023-12-07T00:29:03;4.60;;;4.20;;
10977;SDS011;5542;48.272;10.794;2023-12-07T00:31:29;4.47;;;4.07;;
10977;SDS011;5542;48.272;10.794;2023-12-07T00:33:58;5.03;;;4.30;;
10977;SDS011;5542;48.272;10.794;2023-12-07T00:36:25;4.57;;;4.05;;
10977;SDS011;5542;48.272;10.794;2023-12-07T00:38:52;4.32;;;3.80;;
10977;SDS011;5542;48.272;10.794;2023-12-07T00:41:18;4.20;;;3.50;;
10977;SDS011;5542;48.272;10.794;2023-12-07T00:43:46;5.18;;;4.65;;
10977;SDS011;5542;48.272;10.794;2023-12-07T00:46:13;5.45;;;4.85;;
10977;SDS011;5542;48.272;10.794;2023-12-07T00:48:40;5.38;;;4.88;;
10977;SDS011;5542;48.272;10.794;2023-12-07T00:51:06;5.00;;;4.50;;
10977;SDS011;5542;48.272;10.794;2023-12-07T00:53:33;4.65;;;4.25;;
10977;SDS011;5542;48.272;10.794;2023-12-07T00:55:59;4.35;;;3.70;;
10977;SDS011;5542;48.272;10.794;2023-12-07T00:58:26;3.53;;;3.22;;
10977;SDS011;5542;48.272;10.794;2023-12-07T01:00:54;3.58;;;3.28;;
10977;SDS011;5542;48.272;10.794;2023-12-07T01:03:20;3.72;;;3.42;;
10977;SDS011;5542;48.272;10.794;2023-12-07T01:05:47;3.90;;;3.58;;
10977;SDS011;5542;48.272;10.794;2023-12-07T01:08:13;3.30;;;3.00;;
10977;SDS011;5542;48.272;10.794;2023-12-07T01:10:40;3.33;;;3.03;;
10977;SDS011;5542;48.272;10.794;2023-12-07T01:13:07;3.70;;;3.40;;
10977;SDS011;5542;48.272;10.794;2023-12-07T01:15:33;3.83;;;3.50;;
10977;SDS011;5542;48.272;10.794;2023-12-07T01:18:01;5.10;;;4.50;;
10977;SDS011;5542;48.272;10.794;2023-12-07T01:20:28;5.03;;;4.45;;
10977;SDS011;5542;48.272;10.794;2023-12-07T01:22:55;5.70;;;4.78;;
10977;SDS011;5542;48.272;10.794;2023-12-07T01:25:21;4.85;;;4.38;;
10977;SDS011;5542;48.272;10.794;2023-12-07T01:27:49;4.30;;;3.90;;
10977;SDS011;5542;48.272;10.794;2023-12-07T01:30:15;4.50;;;3.85;;
10977;SDS011;5542;48.272;10.794;2023-12-07T01:32:42;4.18;;;3.70;;
10977;SDS011;5542;48.272;10.794;2023-12-07T01:35:10;3.92;;;3.60;;
10977;SDS011;5542;48.272;10.794;2023-12-07T01:37:37;5.00;;;4.50;;
10977;SDS011;5542;48.272;10.794;2023-12-07T01:40:04;6.60;;;5.90;;
10977;SDS011;5542;48.272;10.794;2023-12-07T01:42:35;6.00;;;5.40;;
10977;SDS011;5542;48.272;10.794;2023-12-07T01:45:02;5.40;;;4.85;;
10977;SDS011;5542;48.272;10.794;2023-12-07T01:47:30;5.78;;;4.50;;
10977;SDS011;5542;48.272;10.794;2023-12-07T01:49:57;5.95;;;5.00;;
10977;SDS011;5542;48.272;10.794;2023-12-07T01:52:26;5.38;;;4.80;;
10977;SDS011;5542;48.272;10.794;2023-12-07T01:54:55;5.20;;;4.70;;
10977;SDS011;5542;48.272;10.794;2023-12-07T01:57:23;4.65;;;4.22;;
10977;SDS011;5542;48.272;10.794;2023-12-07T01:59:51;5.00;;;4.13;;
10977;SDS011;5542;48.272;10.794;2023-12-07T02:02:17;3.97;;;3.58;;
10977;SDS011;5542;48.272;10.794;2023-12-07T02:04:44;5.15;;;4.65;;
10977;SDS011;5542;48.272;10.794;2023-12-07T02:07:10;5.10;;;4.55;;
10977;SDS011;5542;48.272;10.794;2023-12-07T02:09:39;4.60;;;4.20;;
10977;SDS011;5542;48.272;10.794;2023-12-07T02:12:06;4.23;;;3.83;;
10977;SDS011;5542;48.272;10.794;2023-12-07T02:14:32;4.23;;;3.83;;
10977;SDS011;5542;48.272;10.794;2023-12-07T02:17:01;4.45;;;4.05;;
10977;SDS011;5542;48.272;10.794;2023-12-07T02:19:47;4.97;;;4.47;;
10977;SDS011;5542;48.272;10.794;2023-12-07T02:22:21;5.03;;;4.50;;
10977;SDS011;5542;48.272;10.794;2023-12-07T02:24:59;4.80;;;4.30;;
10977;SDS011;5542;48.272;10.794;2023-12-07T02:27:36;4.47;;;4.00;;
10977;SDS011;5542;48.272;10.794;2023-12-07T02:30:04;3.80;;;3.40;;
10977;SDS011;5542;48.272;10.794;2023-12-07T02:32:31;3.38;;;3.08;;
10977;SDS011;5542;48.272;10.794;2023-12-07T02:34:59;4.18;;;3.78;;
10977;SDS011;5542;48.272;10.794;2023-12-07T02:37:27;3.70;;;3.40;;
10977;SDS011;5542;48.272;10.794;2023-12-07T02:39:55;3.75;;;3.30;;
10977;SDS011;5542;48.272;10.794;2023-12-07T02:42:22;3.50;;;3.20;;
10977;SDS011;5542;48.272;10.794;2023-12-07T02:44:52;4.38;;;3.83;;
10977;SDS011;5542;48.272;10.794;2023-12-07T02:47:19;4.55;;;3.60;;
10977;SDS011;5542;48.272;10.794;2023-12-07T02:49:46;4.03;;;3.63;;
10977;SDS011;5542;48.272;10.794;2023-12-07T02:52:13;3.55;;;3.25;;
10977;SDS011;5542;48.272;10.794;2023-12-07T02:54:39;3.35;;;3.10;;
10977;SDS011;5542;48.272;10.794;2023-12-07T02:57:06;3.58;;;3.28;;
10977;SDS011;5542;48.272;10.794;2023-12-07T02:59:33;4.38;;;3.92;;
10977;SDS011;5542;48.272;10.794;2023-12-07T03:02:01;5.00;;;4.15;;
10977;SDS011;5542;48.272;10.794;2023-12-07T03:04:28;5.25;;;4.65;;
10977;SDS011;5542;48.272;10.794;2023-12-07T03:06:54;5.22;;;4.57;;
10977;SDS011;5542;48.272;10.794;2023-12-07T03:09:21;4.85;;;4.35;;
10977;SDS011;5542;48.272;10.794;2023-12-07T03:11:47;4.53;;;4.13;;
10977;SDS011;5542;48.272;10.794;2023-12-07T03:14:14;4.18;;;3.78;;
10977;SDS011;5542;48.272;10.794;2023-12-07T03:16:40;3.75;;;3.30;;
10977;SDS011;5542;48.272;10.794;2023-12-07T03:19:08;4.50;;;3.90;;
10977;SDS011;5542;48.272;10.794;2023-12-07T03:21:38;4.50;;;4.10;;
10977;SDS011;5542;48.272;10.794;2023-12-07T03:24:06;4.45;;;3.95;;
10977;SDS011;5542;48.272;10.794;2023-12-07T03:26:32;5.03;;;4.53;;
10977;SDS011;5542;48.272;10.794;2023-12-07T03:28:59;6.07;;;5.25;;
10977;SDS011;5542;48.272;10.794;2023-12-07T03:31:26;5.65;;;5.00;;
10977;SDS011;5542;48.272;10.794;2023-12-07T03:33:53;5.68;;;4.72;;
10977;SDS011;5542;48.272;10.794;2023-12-07T03:36:22;6.57;;;5.43;;
10977;SDS011;5542;48.272;10.794;2023-12-07T03:38:49;6.03;;;5.40;;
10977;SDS011;5542;48.272;10.794;2023-12-07T03:41:15;5.57;;;5.07;;
10977;SDS011;5542;48.272;10.794;2023-12-07T03:43:42;5.30;;;4.60;;
10977;SDS011;5542;48.272;10.794;2023-12-07T03:46:09;4.83;;;4.33;;
10977;SDS011;5542;48.272;10.794;2023-12-07T03:48:35;4.25;;;3.85;;
10977;SDS011;5542;48.272;10.794;2023-12-07T03:51:02;4.27;;;3.87;;
10977;SDS011;5542;48.272;10.794;2023-12-07T03:53:31;5.38;;;4.32;;
10977;SDS011;5542;48.272;10.794;2023-12-07T03:55:57;3.55;;;3.35;;
10977;SDS011;5542;48.272;10.794;2023-12-07T03:58:24;4.00;;;3.55;;
10977;SDS011;5542;48.272;10.794;2023-12-07T04:00:51;3.90;;;3.50;;
10977;SDS011;5542;48.272;10.794;2023-12-07T04:03:17;3.70;;;3.35;;
10977;SDS011;5542;48.272;10.794;2023-12-07T04:05:44;4.03;;;3.63;;
10977;SDS011;5542;48.272;10.794;2023-12-07T04:08:10;4.47;;;4.05;;
10977;SDS011;5542;48.272;10.794;2023-12-07T04:10:39;5.10;;;4.60;;
10977;SDS011;5542;48.272;10.794;2023-12-07T04:13:05;5.50;;;4.90;;
10977;SDS011;5542;48.272;10.794;2023-12-07T04:15:32;4.70;;;4.25;;
10977;SDS011;5542;48.272;10.794;2023-12-07T04:17:58;5.55;;;4.82;;
10977;SDS011;5542;48.272;10.794;2023-12-07T04:20:25;5.68;;;4.90;;
10977;SDS011;5542;48.272;10.794;2023-12-07T04:22:52;5.65;;;5.00;;
10977;SDS011;5542;48.272;10.794;2023-12-07T04:25:18;5.93;;;5.30;;
10977;SDS011;5542;48.272;10.794;2023-12-07T04:27:46;6.30;;;5.10;;
10977;SDS011;5542;48.272;10.794;2023-12-07T04:30:13;5.20;;;4.70;;
10977;SDS011;5542;48.272;10.794;2023-12-07T04:32:39;4.55;;;4.15;;
10977;SDS011;5542;48.272;10.794;2023-12-07T04:35:06;6.25;;;5.43;;
10977;SDS011;5542;48.272;10.794;2023-12-07T04:37:33;5.57;;;4.97;;
10977;SDS011;5542;48.272;10.794;2023-12-07T04:40:00;5.60;;;4.90;;
10977;SDS011;5542;48.272;10.794;2023-12-07T04:42:27;6.28;;;5.68;;
10977;SDS011;5542;48.272;10.794;2023-12-07T04:44:55;5.75;;;4.90;;
10977;SDS011;5542;48.272;10.794;2023-12-07T04:47:22;5.10;;;4.60;;
10977;SDS011;5542;48.272;10.794;2023-12-07T04:49:49;6.43;;;5.57;;
10977;SDS011;5542;48.272;10.794;2023-12-07T04:52:15;7.20;;;5.55;;
10977;SDS011;5542;48.272;10.794;2023-12-07T04:54:42;6.55;;;5.68;;
10977;SDS011;5542;48.272;10.794;2023-12-07T04:57:08;5.22;;;4.70;;
10977;SDS011;5542;48.272;10.794;2023-12-07T04:59:35;6.18;;;5.45;;
10977;SDS011;5542;48.272;10.794;2023-12-07T05:02:03;5.90;;;5.05;;
10977;SDS011;5542;48.272;10.794;2023-12-07T05:04:30;5.93;;;5.32;;
10977;SDS011;5542;48.272;10.794;2023-12-07T05:06:58;6.50;;;5.57;;
10977;SDS011;5542;48.272;10.794;2023-12-07T05:09:25;6.80;;;5.45;;
10977;SDS011;5542;48.272;10.794;2023-12-07T05:11:51;6.78;;;5.57;;
10977;SDS011;5542;48.272;10.794;2023-12-07T05:14:18;5.90;;;5.30;;
10977;SDS011;5542;48.272;10.794;2023-12-07T05:16:44;7.53;;;5.85;;
10977;SDS011;5542;48.272;10.794;2023-12-07T05:19:14;8.07;;;6.30;;
10977;SDS011;5542;48.272;10.794;2023-12-07T05:21:41;10.15;;;6.90;;
10977;SDS011;5542;48.272;10.794;2023-12-07T05:24:07;10.98;;;7.70;;
10977;SDS011;5542;48.272;10.794;2023-12-07T05:26:34;12.95;;;8.88;;
10977;SDS011;5542;48.272;10.794;2023-12-07T05:29:01;21.75;;;10.18;;
10977;SDS011;5542;48.272;10.794;2023-12-07T05:31:28;60.47;;;23.17;;
10977;SDS011;5542;48.272;10.794;2023-12-07T05:33:54;80.78;;;29.85;;
10977;SDS011;5542;48.272;10.794;2023-12-07T05:36:22;77.77;;;29.83;;
10977;SDS011;5542;48.272;10.794;2023-12-07T05:38:49;66.95;;;28.20;;
10977;SDS011;5542;48.272;10.794;2023-12-07T05:41:16;67.13;;;26.90;;
10977;SDS011;5542;48.272;10.794;2023-12-07T05:43:42;54.45;;;24.27;;
10977;SDS011;5542;48.272;10.794;2023-12-07T05:46:09;40.22;;;18.33;;
10977;SDS011;5542;48.272;10.794;2023-12-07T05:48:35;26.23;;;14.43;;
10977;SDS011;5542;48.272;10.794;2023-12-07T05:51:03;25.15;;;13.05;;
10977;SDS011;5542;48.272;10.794;2023-12-07T05:53:31;17.63;;;11.40;;
10977;SDS011;5542;48.272;10.794;2023-12-07T05:55:58;13.70;;;9.13;;
10977;SDS011;5542;48.272;10.794;2023-12-07T05:58:25;13.23;;;8.10;;
10977;SDS011;5542;48.272;10.794;2023-12-07T06:00:51;11.48;;;7.72;;
10977;SDS011;5542;48.272;10.794;2023-12-07T06:03:18;10.82;;;7.32;;
10977;SDS011;5542;48.272;10.794;2023-12-07T06:05:44;8.60;;;6.32;;
10977;SDS011;5542;48.272;10.794;2023-12-07T06:08:11;7.82;;;6.70;;
10977;SDS011;5542;48.272;10.794;2023-12-07T06:10:39;8.02;;;6.50;;
10977;SDS011;5542;48.272;10.794;2023-12-07T06:13:06;9.68;;;6.88;;
10977;SDS011;5542;48.272;10.794;2023-12-07T06:15:33;12.60;;;7.45;;
10977;SDS011;5542;48.272;10.794;2023-12-07T06:17:59;12.38;;;7.05;;
10977;SDS011;5542;48.272;10.794;2023-12-07T06:20:26;11.23;;;6.75;;
10977;SDS011;5542;48.272;10.794;2023-12-07T06:22:52;9.38;;;6.13;;
10977;SDS011;5542;48.272;10.794;2023-12-07T06:25:19;9.30;;;6.07;;
10977;SDS011;5542;48.272;10.794;2023-12-07T06:27:47;7.53;;;5.60;;
10977;SDS011;5542;48.272;10.794;2023-12-07T06:30:14;7.32;;;5.75;;
10977;SDS011;5542;48.272;10.794;2023-12-07T06:32:41;6.93;;;5.65;;
10977;SDS011;5542;48.272;10.794;2023-12-07T06:35:08;5.60;;;4.97;;
10977;SDS011;5542;48.272;10.794;2023-12-07T06:37:37;5.90;;;4.75;;
10977;SDS011;5542;48.272;10.794;2023-12-07T06:40:05;6.47;;;5.63;;
10977;SDS011;5542;48.272;10.794;2023-12-07T06:42:34;6.37;;;5.60;;
10977;SDS011;5542;48.272;10.794;2023-12-07T06:45:02;6.63;;;5.85;;
10977;SDS011;5542;48.272;10.794;2023-12-07T06:47:29;7.55;;;6.57;;
10977;SDS011;5542;48.272;10.794;2023-12-07T06:49:56;7.50;;;5.65;;
10977;SDS011;5542;48.272;10.794;2023-12-07T06:52:22;5.50;;;4.88;;
10977;SDS011;5542;48.272;10.794;2023-12-07T06:54:49;5.82;;;5.20;;
10977;SDS011;5542;48.272;10.794;2023-12-07T06:57:15;6.55;;;5.85;;
10977;SDS011;5542;48.272;10.794;2023-12-07T06:59:42;6.05;;;5.03;;
10977;SDS011;5542;48.272;10.794;2023-12-07T07:02:10;5.72;;;4.75;;
10977;SDS011;5542;48.272;10.794;2023-12-07T07:04:36;6.35;;;5.30;;
10977;SDS011;5542;48.272;10.794;2023-12-07T07:07:03;5.68;;;5.10;;
10977;SDS011;5542;48.272;10.794;2023-12-07T07:09:30;5.40;;;4.85;;
10977;SDS011;5542;48.272;10.794;2023-12-07T07:11:56;6.05;;;4.97;;
10977;SDS011;5542;48.272;10.794;2023-12-07T07:14:23;6.72;;;5.35;;
10977;SDS011;5542;48.272;10.794;2023-12-07T07:16:50;5.40;;;4.88;;
10977;SDS011;5542;48.272;10.794;2023-12-07T07:19:18;5.53;;;4.77;;
10977;SDS011;5542;48.272;10.794;2023-12-07T07:21:45;5.80;;;5.13;;
10977;SDS011;5542;48.272;10.794;2023-12-07T07:24:11;6.60;;;5.07;;
10977;SDS011;5542;48.272;10.794;2023-12-07T07:26:38;6.38;;;5.47;;
10977;SDS011;5542;48.272;10.794;2023-12-07T07:29:04;5.55;;;4.95;;
10977;SDS011;5542;48.272;10.794;2023-12-07T07:31:31;5.50;;;4.97;;
10977;SDS011;5542;48.272;10.794;2023-12-07T07:33:58;5.65;;;4.97;;
10977;SDS011;5542;48.272;10.794;2023-12-07T07:36:26;5.47;;;4.63;;
10977;SDS011;5542;48.272;10.794;2023-12-07T07:38:52;7.15;;;5.90;;
10977;SDS011;5542;48.272;10.794;2023-12-07T07:41:19;5.57;;;4.97;;
10977;SDS011;5542;48.272;10.794;2023-12-07T07:43:46;5.40;;;4.90;;
10977;SDS011;5542;48.272;10.794;2023-12-07T07:46:12;6.28;;;5.13;;
10977;SDS011;5542;48.272;10.794;2023-12-07T07:48:39;8.05;;;6.22;;
10977;SDS011;5542;48.272;10.794;2023-12-07T07:51:05;6.23;;;5.07;;
10977;SDS011;5542;48.272;10.794;2023-12-07T07:53:33;6.45;;;5.75;;
10977;SDS011;5542;48.272;10.794;2023-12-07T07:56:00;6.30;;;5.22;;
10977;SDS011;5542;48.272;10.794;2023-12-07T07:58:26;11.82;;;7.25;;
10977;SDS011;5542;48.272;10.794;2023-12-07T08:00:53;42.42;;;21.08;;
10977;SDS011;5542;48.272;10.794;2023-12-07T08:03:19;44.78;;;21.38;;
10977;SDS011;5542;48.272;10.794;2023-12-07T08:05:46;18.27;;;10.50;;
10977;SDS011;5542;48.272;10.794;2023-12-07T08:08:13;12.82;;;9.10;;
10977;SDS011;5542;48.272;10.794;2023-12-07T08:10:40;10.45;;;7.05;;
10977;SDS011;5542;48.272;10.794;2023-12-07T08:13:07;7.35;;;5.97;;
10977;SDS011;5542;48.272;10.794;2023-12-07T08:15:34;6.63;;;6.00;;
10977;SDS011;5542;48.272;10.794;2023-12-07T08:18:00;6.70;;;5.50;;
10977;SDS011;5542;48.272;10.794;2023-12-07T08:20:28;7.20;;;6.00;;
10977;SDS011;5542;48.272;10.794;2023-12-07T08:22:54;7.50;;;5.88;;
10977;SDS011;5542;48.272;10.794;2023-12-07T08:25:21;5.50;;;4.93;;
10977;SDS011;5542;48.272;10.794;2023-12-07T08:27:49;8.82;;;6.53;;
10977;SDS011;5542;48.272;10.794;2023-12-07T08:30:15;7.78;;;6.10;;
10977;SDS011;5542;48.272;10.794;2023-12-07T08:32:43;7.23;;;5.87;;
10977;SDS011;5542;48.272;10.794;2023-12-07T08:35:10;8.57;;;6.72;;
10977;SDS011;5542;48.272;10.794;2023-12-07T08:37:37;7.25;;;6.40;;
10977;SDS011;5542;48.272;10.794;2023-12-07T08:40:05;7.68;;;6.63;;
10977;SDS011;5542;48.272;10.794;2023-12-07T08:42:32;7.88;;;6.53;;
10977;SDS011;5542;48.272;10.794;2023-12-07T08:45:00;7.68;;;6.70;;
10977;SDS011;5542;48.272;10.794;2023-12-07T08:47:26;7.70;;;6.32;;
10977;SDS011;5542;48.272;10.794;2023-12-07T08:49:55;7.25;;;6.28;;
10977;SDS011;5542;48.272;10.794;2023-12-07T08:52:21;7.40;;;6.60;;
10977;SDS011;5542;48.272;10.794;2023-12-07T08:54:48;9.73;;;7.68;;
10977;SDS011;5542;48.272;10.794;2023-12-07T08:57:15;7.88;;;7.07;;
10977;SDS011;5542;48.272;10.794;2023-12-07T08:59:43;8.63;;;7.28;;
10977;SDS011;5542;48.272;10.794;2023-12-07T09:02:11;9.02;;;7.55;;
10977;SDS011;5542;48.272;10.794;2023-12-07T09:04:38;9.32;;;6.28;;
10977;SDS011;5542;48.272;10.794;2023-12-07T09:07:04;7.70;;;5.95;;
10977;SDS011;5542;48.272;10.794;2023-12-07T09:09:32;7.70;;;6.40;;
10977;SDS011;5542;48.272;10.794;2023-12-07T09:11:59;8.68;;;6.93;;
10977;SDS011;5542;48.272;10.794;2023-12-07T09:14:25;7.00;;;6.30;;
10977;SDS011;5542;48.272;10.794;2023-12-07T09:16:52;8.25;;;6.70;;
10977;SDS011;5542;48.272;10.794;2023-12-07T09:19:21;9.00;;;6.97;;
10977;SDS011;5542;48.272;10.794;2023-12-07T09:21:48;7.82;;;6.65;;
10977;SDS011;5542;48.272;10.794;2023-12-07T09:24:15;7.85;;;6.82;;
10977;SDS011;5542;48.272;10.794;2023-12-07T09:26:42;8.20;;;6.90;;
10977;SDS011;5542;48.272;10.794;2023-12-07T09:29:08;8.50;;;6.93;;
10977;SDS011;5542;48.272;10.794;2023-12-07T09:31:35;14.00;;;8.83;;
10977;SDS011;5542;48.272;10.794;2023-12-07T09:34:02;76.40;;;34.15;;
10977;SDS011;5542;48.272;10.794;2023-12-07T09:36:29;86.15;;;37.85;;
10977;SDS011;5542;48.272;10.794;2023-12-07T09:38:56;11.05;;;9.50;;
10977;SDS011;5542;48.272;10.794;2023-12-07T09:41:23;10.25;;;7.65;;
10977;SDS011;5542;48.272;10.794;2023-12-07T09:43:50;8.00;;;6.78;;
10977;SDS011;5542;48.272;10.794;2023-12-07T09:46:16;8.70;;;7.80;;
10977;SDS011;5542;48.272;10.794;2023-12-07T09:48:44;8.63;;;7.22;;
10977;SDS011;5542;48.272;10.794;2023-12-07T09:51:14;7.57;;;6.30;;
10977;SDS011;5542;48.272;10.794;2023-12-07T09:53:43;8.10;;;7.30;;
10977;SDS011;5542;48.272;10.794;2023-12-07T09:56:14;7.25;;;6.03;;
10977;SDS011;5542;48.272;10.794;2023-12-07T09:58:41;7.88;;;6.50;;
10977;SDS011;5542;48.272;10.794;2023-12-07T10:01:08;7.47;;;6.50;;
10977;SDS011;5542;48.272;10.794;2023-12-07T10:03:38;7.32;;;6.18;;
10977;SDS011;5542;48.272;10.794;2023-12-07T10:06:05;6.80;;;5.75;;
10977;SDS011;5542;48.272;10.794;2023-12-07T10:08:33;8.73;;;7.10;;
10977;SDS011;5542;48.272;10.794;2023-12-07T10:11:02;8.85;;;7.07;;
10977;SDS011;5542;48.272;10.794;2023-12-07T10:13:33;8.82;;;7.45;;
10977;SDS011;5542;48.272;10.794;2023-12-07T10:16:07;7.45;;;6.50;;
10977;SDS011;5542;48.272;10.794;2023-12-07T10:18:35;6.70;;;6.00;;
10977;SDS011;5542;48.272;10.794;2023-12-07T10:21:02;8.02;;;6.60;;
10977;SDS011;5542;48.272;10.794;2023-12-07T10:23:29;7.88;;;6.72;;
10977;SDS011;5542;48.272;10.794;2023-12-07T10:25:58;7.65;;;6.65;;
10977;SDS011;5542;48.272;10.794;2023-12-07T10:28:26;7.32;;;6.18;;
10977;SDS011;5542;48.272;10.794;2023-12-07T10:30:53;6.68;;;5.93;;
10977;SDS011;5542;48.272;10.794;2023-12-07T10:33:20;6.35;;;5.65;;
10977;SDS011;5542;48.272;10.794;2023-12-07T10:35:46;8.13;;;5.97;;
10977;SDS011;5542;48.272;10.794;2023-12-07T10:38:14;7.05;;;5.97;;
10977;SDS011;5542;48.272;10.794;2023-12-07T10:40:41;6.63;;;5.93;;
10977;SDS011;5542;48.272;10.794;2023-12-07T10:43:08;10.65;;;7.97;;
10977;SDS011;5542;48.272;10.794;2023-12-07T10:45:36;9.30;;;7.38;;
10977;SDS011;5542;48.272;10.794;2023-12-07T10:48:03;9.48;;;7.45;;
10977;SDS011;5542;48.272;10.794;2023-12-07T10:50:34;16.73;;;12.30;;
10977;SDS011;5542;48.272;10.794;2023-12-07T10:53:04;7.83;;;6.60;;
10977;SDS011;5542;48.272;10.794;2023-12-07T10:55:36;6.50;;;5.43;;
10977;SDS011;5542;48.272;10.794;2023-12-07T10:58:09;6.07;;;5.00;;
10977;SDS011;5542;48.272;10.794;2023-12-07T11:00:39;6.00;;;5.32;;
10977;SDS011;5542;48.272;10.794;2023-12-07T11:03:11;7.18;;;6.13;;
10977;SDS011;5542;48.272;10.794;2023-12-07T11:05:41;9.15;;;7.47;;
10977;SDS011;5542;48.272;10.794;2023-12-07T11:08:09;8.00;;;6.60;;
10977;SDS011;5542;48.272;10.794;2023-12-07T11:10:43;7.53;;;6.72;;
10977;SDS011;5542;48.272;10.794;2023-12-07T11:13:17;9.10;;;8.02;;
10977;SDS011;5542;48.272;10.794;2023-12-07T11:15:47;11.10;;;9.23;;
10977;SDS011;5542;48.272;10.794;2023-12-07T11:18:14;11.48;;;8.68;;
10977;SDS011;5542;48.272;10.794;2023-12-07T11:20:41;7.07;;;6.10;;
10977;SDS011;5542;48.272;10.794;2023-12-07T11:23:11;8.20;;;6.97;;
10977;SDS011;5542;48.272;10.794;2023-12-07T11:25:38;11.65;;;9.15;;
10977;SDS011;5542;48.272;10.794;2023-12-07T11:28:05;10.20;;;7.60;;
10977;SDS011;5542;48.272;10.794;2023-12-07T11:30:34;7.55;;;6.25;;
10977;SDS011;5542;48.272;10.794;2023-12-07T11:33:04;8.18;;;6.65;;
10977;SDS011;5542;48.272;10.794;2023-12-07T11:35:31;6.80;;;5.90;;
10977;SDS011;5542;48.272;10.794;2023-12-07T11:38:02;7.85;;;6.25;;
10977;SDS011;5542;48.272;10.794;2023-12-07T11:40:31;6.90;;;6.15;;
10977;SDS011;5542;48.272;10.794;2023-12-07T11:42:59;8.38;;;5.97;;
10977;SDS011;5542;48.272;10.794;2023-12-07T11:48:10;6.88;;;5.70;;
10977;SDS011;5542;48.272;10.794;2023-12-07T11:53:21;6.88;;;5.55;;
10977;SDS011;5542;48.272;10.794;2023-12-07T11:55:49;6.32;;;5.47;;
10977;SDS011;5542;48.272;10.794;2023-12-07T11:58:15;7.05;;;6.03;;
10977;SDS011;5542;48.272;10.794;2023-12-07T12:00:42;6.45;;;5.00;;
10977;SDS011;5542;48.272;10.794;2023-12-07T12:03:11;6.93;;;5.28;;
10977;SDS011;5542;48.272;10.794;2023-12-07T12:05:38;5.70;;;5.10;;
10977;SDS011;5542;48.272;10.794;2023-12-07T12:08:05;7.43;;;5.72;;
10977;SDS011;5542;48.272;10.794;2023-12-07T12:10:32;7.95;;;5.82;;
10977;SDS011;5542;48.272;10.794;2023-12-07T12:13:00;6.20;;;5.60;;
10977;SDS011;5542;48.272;10.794;2023-12-07T12:15:28;6.72;;;5.45;;
10977;SDS011;5542;48.272;10.794;2023-12-07T12:17:55;6.97;;;5.80;;
10977;SDS011;5542;48.272;10.794;2023-12-07T12:20:23;8.85;;;6.63;;
10977;SDS011;5542;48.272;10.794;2023-12-07T12:22:50;7.55;;;5.80;;
10977;SDS011;5542;48.272;10.794;2023-12-07T12:25:18;7.15;;;6.30;;
10977;SDS011;5542;48.272;10.794;2023-12-07T12:27:47;7.18;;;5.72;;
10977;SDS011;5542;48.272;10.794;2023-12-07T12:30:15;7.10;;;5.65;;
10977;SDS011;5542;48.272;10.794;2023-12-07T12:32:43;7.03;;;5.18;;
10977;SDS011;5542;48.272;10.794;2023-12-07T12:35:10;5.25;;;4.18;;
10977;SDS011;5542;48.272;10.794;2023-12-07T12:37:39;4.72;;;4.22;;
10977;SDS011;5542;48.272;10.794;2023-12-07T12:40:06;5.07;;;4.10;;
10977;SDS011;5542;48.272;10.794;2023-12-07T12:42:33;4.72;;;4.22;;
10977;SDS011;5542;48.272;10.794;2023-12-07T12:45:02;5.10;;;4.18;;
10977;SDS011;5542;48.272;10.794;2023-12-07T12:47:29;5.53;;;4.00;;
10977;SDS011;5542;48.272;10.794;2023-12-07T12:49:56;4.72;;;4.20;;
10977;SDS011;5542;48.272;10.794;2023-12-07T12:52:23;4.70;;;4.30;;
10977;SDS011;5542;48.272;10.794;2023-12-07T12:54:52;7.82;;;5.35;;
10977;SDS011;5542;48.272;10.794;2023-12-07T12:57:21;8.27;;;5.55;;
10977;SDS011;5542;48.272;10.794;2023-12-07T12:59:48;6.20;;;4.53;;
10977;SDS011;5542;48.272;10.794;2023-12-07T13:02:14;4.85;;;3.70;;
10977;SDS011;5542;48.272;10.794;2023-12-07T13:04:41;7.53;;;4.03;;
10977;SDS011;5542;48.272;10.794;2023-12-07T13:07:08;4.40;;;3.50;;
10977;SDS011;5542;48.272;10.794;2023-12-07T13:09:34;5.10;;;3.30;;
10977;SDS011;5542;48.272;10.794;2023-12-07T13:12:02;3.63;;;3.25;;
10977;SDS011;5542;48.272;10.794;2023-12-07T13:14:29;4.93;;;3.63;;
10977;SDS011;5542;48.272;10.794;2023-12-07T13:16:56;3.00;;;2.80;;
10977;SDS011;5542;48.272;10.794;2023-12-07T13:19:22;3.30;;;3.00;;
10977;SDS011;5542;48.272;10.794;2023-12-07T13:21:49;3.83;;;3.13;;
10977;SDS011;5542;48.272;10.794;2023-12-07T13:24:17;3.30;;;3.00;;
10977;SDS011;5542;48.272;10.794;2023-12-07T13:26:44;3.57;;;3.27;;
10977;SDS011;5542;48.272;10.794;2023-12-07T13:29:12;2.95;;;2.70;;
10977;SDS011;5542;48.272;10.794;2023-12-07T13:31:38;3.97;;;3.20;;
10977;SDS011;5542;48.272;10.794;2023-12-07T13:34:05;4.07;;;3.53;;
10977;SDS011;5542;48.272;10.794;2023-12-07T13:36:32;3.28;;;2.97;;
10977;SDS011;5542;48.272;10.794;2023-12-07T13:39:00;3.47;;;3.17;;
10977;SDS011;5542;48.272;10.794;2023-12-07T13:41:27;3.53;;;3.22;;
10977;SDS011;5542;48.272;10.794;2023-12-07T13:43:54;4.53;;;3.10;;
10977;SDS011;5542;48.272;10.794;2023-12-07T13:46:22;3.60;;;3.30;;
10977;SDS011;5542;48.272;10.794;2023-12-07T13:48:49;3.33;;;3.03;;
10977;SDS011;5542;48.272;10.794;2023-12-07T13:51:15;3.63;;;3.33;;
10977;SDS011;5542;48.272;10.794;2023-12-07T13:53:43;3.70;;;3.40;;
10977;SDS011;5542;48.272;10.794;2023-12-07T13:56:09;4.10;;;3.47;;
10977;SDS011;5542;48.272;10.794;2023-12-07T13:58:36;5.00;;;3.78;;
10977;SDS011;5542;48.272;10.794;2023-12-07T14:01:04;4.55;;;3.83;;
10977;SDS011;5542;48.272;10.794;2023-12-07T14:03:33;4.43;;;3.70;;
10977;SDS011;5542;48.272;10.794;2023-12-07T14:05:59;3.95;;;3.63;;
10977;SDS011;5542;48.272;10.794;2023-12-07T14:08:26;4.15;;;3.58;;
10977;SDS011;5542;48.272;10.794;2023-12-07T14:10:56;4.30;;;3.90;;
10977;SDS011;5542;48.272;10.794;2023-12-07T14:13:22;4.17;;;3.50;;
10977;SDS011;5542;48.272;10.794;2023-12-07T14:15:50;3.35;;;3.05;;
10977;SDS011;5542;48.272;10.794;2023-12-07T14:18:17;3.97;;;3.67;;
10977;SDS011;5542;48.272;10.794;2023-12-07T14:20:45;4.10;;;3.70;;
10977;SDS011;5542;48.272;10.794;2023-12-07T14:23:11;3.55;;;3.25;;
10977;SDS011;5542;48.272;10.794;2023-12-07T14:25:39;3.30;;;3.00;;
10977;SDS011;5542;48.272;10.794;2023-12-07T14:28:07;4.20;;;3.50;;
10977;SDS011;5542;48.272;10.794;2023-12-07T14:30:34;4.07;;;3.20;;
10977;SDS011;5542;48.272;10.794;2023-12-07T14:33:01;3.70;;;3.40;;
10977;SDS011;5542;48.272;10.794;2023-12-07T14:35:27;4.95;;;3.70;;
10977;SDS011;5542;48.272;10.794;2023-12-07T14:37:55;4.72;;;3.55;;
10977;SDS011;5542;48.272;10.794;2023-12-07T14:40:22;3.30;;;3.00;;
10977;SDS011;5542;48.272;10.794;2023-12-07T14:42:49;3.42;;;3.13;;
10977;SDS011;5542;48.272;10.794;2023-12-07T14:45:16;3.58;;;2.97;;
10977;SDS011;5542;48.272;10.794;2023-12-07T14:47:45;2.95;;;2.65;;
10977;SDS011;5542;48.272;10.794;2023-12-07T14:50:12;2.65;;;2.45;;
10977;SDS011;5542;48.272;10.794;2023-12-07T14:52:38;2.75;;;2.55;;